Matucana, Peru
Current Conditions -  °F | °C
As of 8:00 AM on Thursday 30 Oct 2014 (Local Time) from SPIM Reporting Station
Overcast Overcast  
Wind Chill: 64°   Ceiling: 1500
Heat Index: 64°   Visibility: 6mi
Dew Point: 59°   Wind: 5mph
Humidity: 83%   Direction: 300°WNW
Pressure: 29.91"   Gusts: NA
Location:  11.85°S, 76.4°W
Report Text: SPIM 301300Z 30004KT 260V320 9999 OVC015 18/15 Q1013 NOSIG RMK PP000
Loading
Personal Weather Stations






























Interactive Weather Map New forecast layout! Learn more

10-Day Weather Forecast

Advertisements
Track Severe Weather on mobile